Home
 
Morpeth (BP) AWS
Home
Latest Observations
 
Search
 
 
Information
  • Contact
  • Copyright Notice
  • Disclaimer
  • Morpeth (Berry Park), NSW
    Automatic Weather Station
    Latitude: 32°44'SLongitude: 151°40'EElevation: 8.0m

    Last update 10:03am local on Friday 19 April 2019

    Date/Time
    EST
    Temp Dew
    Point
    Rel
    Hum
    Max
    Temp
    MaxT
    Time
    Min
    Temp
    MinT
    Time
    Wind Max Wind Gust Rain
    since 9am
    Wind Dir Speed Gust Max
    Dir
    Max Max
    Time
    °C °C % °C   °C   kts kts kts mm
    19-Apr 10:00 23.7 18.6 73 23.8 09:53 20.7 09:01 0.0
    19-Apr 09:00 21.0 18.7 87 26.5 13:24 14.0 02:03 0.0
    19-Apr 08:00 17.5 16.9 96 26.5 13:24 14.0 02:03 0.0
    19-Apr 07:00 15.1 14.5 96 26.5 13:24 14.0 02:03 0.0
    19-Apr 06:00 14.7 14.1 96 26.5 13:24 14.0 02:03 0.0
    19-Apr 05:00 14.5 13.9 96 26.5 13:24 14.0 02:03 0.0
    19-Apr 04:00 14.9 14.2 96 26.5 13:24 14.0 02:03 0.0
    19-Apr 03:00 15.0 14.4 96 26.5 13:24 14.0 02:03 0.0
    19-Apr 02:00 14.2 13.4 95 26.5 13:24 14.1 02:00 0.0
    19-Apr 01:00 15.2 14.3 94 26.5 13:24 14.9 00:49 0.0
    19-Apr 00:00 15.6 14.7 94 26.5 13:24 15.1 23:11 0.0
    18-Apr 23:00 15.5 14.4 93 26.5 13:24 15.4 23:00 0.0
    18-Apr 22:00 17.2 16.2 94 26.5 13:24 16.3 21:33 0.0
    18-Apr 21:00 17.5 16.3 93 26.5 13:24 17.2 20:30 0.0
    18-Apr 20:00 18.0 16.5 91 26.5 13:24 17.9 20:00 0.0
    18-Apr 19:00 18.6 16.9 90 26.5 13:24 18.3 09:00 0.0
    18-Apr 18:00 19.6 16.8 84 26.5 13:24 18.3 09:00 0.0
    18-Apr 17:00 22.5 16.8 70 26.5 13:24 18.3 09:00 0.0
    18-Apr 16:00 24.7 16.9 62 26.5 13:24 18.3 09:00 0.0
    18-Apr 15:00 26.4 16.0 53 26.5 13:24 18.3 09:00 0.0
    18-Apr 14:00 26.2 16.1 54 26.5 13:24 18.3 09:00 0.0
    18-Apr 13:00 25.5 16.0 56 25.5 13:00 18.3 09:00 0.0
    18-Apr 12:00 24.5 16.2 60 24.8 11:52 18.3 09:00 0.0
    18-Apr 11:00 23.2 16.8 67 23.3 10:57 18.3 09:00 0.0
    18-Apr 10:00 21.2 17.6 80 21.2 09:59 18.3 09:00 0.0
    18-Apr 09:00 18.4 16.4 88 25.0 12:51 11.5 04:37 0.2
    18-Apr 08:00 15.6 15.0 96 25.0 12:51 11.5 04:37 0.2
    18-Apr 07:00 12.7 12.2 97 25.0 12:51 11.5 06:38 0.2
    18-Apr 06:00 12.3 11.8 97 25.0 12:51 11.5 05:15 0.2
    18-Apr 05:00 12.0 11.4 96 25.0 12:51 11.5 04:37 0.2
    18-Apr 04:00 12.4 11.8 96 25.0 12:51 11.9 02:57 0.2
    18-Apr 03:00 12.1 11.5 96 25.0 12:51 11.9 02:57 0.2
    18-Apr 02:00 12.7 12.0 95 25.0 12:51 12.5 01:52 0.2
    18-Apr 01:00 13.0 12.2 95 25.0 12:51 12.8 00:48 0.2
    18-Apr 00:00 13.9 13.0 95 25.0 12:51 13.8 23:59 0.2
    17-Apr 23:00 14.6 13.7 94 25.0 12:51 14.1 22:38 0.2
    17-Apr 22:00 15.6 13.9 90 25.0 12:51 15.5 21:59 0.2
    17-Apr 21:00 16.9 15.2 90 25.0 12:51 15.5 20:40 0.2
    17-Apr 20:00 17.5 15.4 88 25.0 12:51 16.5 09:00 0.2
    17-Apr 19:00 18.4 15.5 83 25.0 12:51 16.5 09:00 0.2
    17-Apr 18:00 19.3 15.8 80 25.0 12:51 16.5 09:00 0.2
    17-Apr 17:00 21.9 16.4 71 25.0 12:51 16.5 09:00 0.2
    17-Apr 16:00 23.2 16.0 64 25.0 12:51 16.5 09:00 0.2
    17-Apr 15:00 23.7 16.1 63 25.0 12:51 16.5 09:00 0.2
    17-Apr 14:00 24.3 16.5 62 25.0 13:15 16.5 09:00 0.2
    17-Apr 13:00 24.1 16.0 61 25.0 12:51 16.5 09:00 0.2
    17-Apr 12:00 23.7 16.0 62 24.8 11:39 16.5 09:00 0.2
    17-Apr 11:00 23.5 17.1 67 23.5 10:59 16.5 09:00 0.0
    17-Apr 10:00 19.4 17.1 87 19.4 09:59 16.5 09:00 0.0
    17-Apr 09:00 16.6 16.0 96 24.7 13:13 12.7 05:38 0.4
    17-Apr 08:00 15.1 14.5 96 24.7 13:13 12.7 05:38 0.4
    17-Apr 07:00 13.3 12.7 96 24.7 13:13 12.7 05:38 0.4
    17-Apr 06:00 12.9 12.3 96 24.7 13:13 12.7 05:38 0.4
    17-Apr 05:00 13.3 12.6 96 24.7 13:13 13.0 04:50 0.4
    17-Apr 04:00 13.6 12.8 95 24.7 13:13 13.6 04:00 0.4
    17-Apr 03:00 14.6 13.9 95 24.7 13:13 13.7 01:18 0.4
    17-Apr 02:00 15.2 14.5 96 24.7 13:13 13.7 01:18 0.4
    17-Apr 01:00 14.4 13.6 95 24.7 13:13 13.9 00:26 0.4
    17-Apr 00:00 14.1 13.3 95 24.7 13:13 14.0 23:56 0.4
    16-Apr 23:00 15.2 14.2 94 24.7 13:13 14.8 21:43 0.4
    16-Apr 22:00 15.4 14.4 94 24.7 13:13 14.8 21:43 0.4
    16-Apr 21:00 16.6 14.8 89 24.7 13:13 16.5 20:59 0.4
    16-Apr 20:00 17.4 15.3 87 24.7 13:13 17.2 19:52 0.4
    16-Apr 19:00 17.6 15.2 86 24.7 13:13 17.4 09:01 0.4
    16-Apr 18:00 18.6 15.0 80 24.7 13:13 17.4 09:01 0.4
    16-Apr 17:00 20.6 15.2 71 24.7 13:13 17.4 09:01 0.4
    16-Apr 16:00 22.7 15.1 62 24.7 13:13 17.4 09:01 0.4
    16-Apr 15:00 23.2 16.2 65 24.7 13:13 17.4 09:01 0.4
    16-Apr 14:00 23.1 16.4 66 24.7 13:13 17.4 09:01 0.4
    16-Apr 13:00 24.1 16.4 62 24.2 12:14 17.4 09:01 0.4
    16-Apr 12:00 23.6 17.1 67 23.6 11:46 17.4 09:01 0.0
    16-Apr 11:00 21.7 16.9 74 21.9 10:49 17.4 09:01 0.0

    Friday, 19 April 2019
    © 2019 Tim Grugeon